You are not logged in, Click here to log in
布拉格瓦茨拉夫·哈維爾國際機場 / LKPR 捷克共和國首都及最大城市布拉格市區西側約10公里
ICAO: LKPR Country: 捷克共和國首都及最大城市布拉格市區西側約10公里
Latitude: 50.1008 Longitude: 14.26
Total Arrivals: 6 Total Departures: 5
Latest Arrival: LH1402 (EDDF-LKPR)ALAN. LIU Latest Departure: FS68 (LKPR-LTFM)ALAN. LIU
Scenery:
METAR : LKPR 241600Z 20015KT 9999 -RA FEW028 SCT035 OVC040 04/M01 Q1015 TEMPO RA BKN020

布拉格瓦茨拉夫·哈維爾國際機場

You are accessing this site from IP address 35.175.113.29. Virtual Airline. CMS by phpVMS.Website designed by Zumeweb and edited by Theo Bearman.
There is 0 User(s) Online: | and 7 Guest(s) Online.
All information on this site is for fight simulation purposes only. This site is for flight logging for pilots of Virtual Airline&模擬飛行論壇 FlySim only.